sensor_id;sensor_type;location;lat;lon;timestamp;P1;durP1;ratioP1;P2;durP2;ratioP2
29196;SDS011;62796;42.654;23.316;2023-02-28T00:01:30;22.35;;;14.68;;
29196;SDS011;62796;42.654;23.316;2023-02-28T00:03:56;22.88;;;14.65;;
29196;SDS011;62796;42.654;23.316;2023-02-28T00:06:22;22.50;;;15.25;;
29196;SDS011;62796;42.654;23.316;2023-02-28T00:08:47;23.30;;;14.13;;
29196;SDS011;62796;42.654;23.316;2023-02-28T00:11:13;24.77;;;13.45;;
29196;SDS011;62796;42.654;23.316;2023-02-28T00:13:41;21.52;;;12.88;;
29196;SDS011;62796;42.654;23.316;2023-02-28T00:16:09;22.65;;;13.02;;
29196;SDS011;62796;42.654;23.316;2023-02-28T00:18:38;18.25;;;11.68;;
29196;SDS011;62796;42.654;23.316;2023-02-28T00:21:04;17.40;;;11.32;;
29196;SDS011;62796;42.654;23.316;2023-02-28T00:23:30;18.67;;;11.38;;
29196;SDS011;62796;42.654;23.316;2023-02-28T00:25:55;17.58;;;10.73;;
29196;SDS011;62796;42.654;23.316;2023-02-28T00:28:21;16.52;;;10.73;;
29196;SDS011;62796;42.654;23.316;2023-02-28T00:30:47;15.85;;;9.43;;
29196;SDS011;62796;42.654;23.316;2023-02-28T00:33:12;20.17;;;10.45;;
29196;SDS011;62796;42.654;23.316;2023-02-28T00:35:38;15.63;;;9.93;;
29196;SDS011;62796;42.654;23.316;2023-02-28T00:38:04;17.58;;;10.25;;
29196;SDS011;62796;42.654;23.316;2023-02-28T00:40:29;15.10;;;10.30;;
29196;SDS011;62796;42.654;23.316;2023-02-28T00:42:55;16.23;;;9.50;;
29196;SDS011;62796;42.654;23.316;2023-02-28T00:45:20;16.05;;;9.82;;
29196;SDS011;62796;42.654;23.316;2023-02-28T00:47:46;15.55;;;9.85;;
29196;SDS011;62796;42.654;23.316;2023-02-28T00:50:14;17.10;;;10.50;;
29196;SDS011;62796;42.654;23.316;2023-02-28T00:52:41;18.13;;;10.85;;
29196;SDS011;62796;42.654;23.316;2023-02-28T00:55:07;18.17;;;12.07;;
29196;SDS011;62796;42.654;23.316;2023-02-28T00:57:32;18.67;;;12.52;;
29196;SDS011;62796;42.654;23.316;2023-02-28T00:59:58;22.48;;;13.45;;
29196;SDS011;62796;42.654;23.316;2023-02-28T01:02:23;20.60;;;14.25;;
29196;SDS011;62796;42.654;23.316;2023-02-28T01:04:48;25.35;;;14.85;;
29196;SDS011;62796;42.654;23.316;2023-02-28T01:07:14;23.52;;;13.63;;
29196;SDS011;62796;42.654;23.316;2023-02-28T01:09:40;25.92;;;14.55;;
29196;SDS011;62796;42.654;23.316;2023-02-28T01:12:06;23.80;;;14.63;;
29196;SDS011;62796;42.654;23.316;2023-02-28T01:14:32;22.38;;;14.35;;
29196;SDS011;62796;42.654;23.316;2023-02-28T01:16:58;25.17;;;15.60;;
29196;SDS011;62796;42.654;23.316;2023-02-28T01:19:23;23.33;;;14.98;;
29196;SDS011;62796;42.654;23.316;2023-02-28T01:21:48;24.52;;;14.60;;
29196;SDS011;62796;42.654;23.316;2023-02-28T01:24:14;24.27;;;15.10;;
29196;SDS011;62796;42.654;23.316;2023-02-28T01:26:39;23.75;;;14.63;;
29196;SDS011;62796;42.654;23.316;2023-02-28T01:29:05;22.40;;;15.23;;
29196;SDS011;62796;42.654;23.316;2023-02-28T01:31:30;25.20;;;16.05;;
29196;SDS011;62796;42.654;23.316;2023-02-28T01:33:55;25.55;;;16.08;;
29196;SDS011;62796;42.654;23.316;2023-02-28T01:36:24;26.67;;;17.30;;
29196;SDS011;62796;42.654;23.316;2023-02-28T01:38:50;26.73;;;16.75;;
29196;SDS011;62796;42.654;23.316;2023-02-28T01:41:23;26.88;;;16.52;;
29196;SDS011;62796;42.654;23.316;2023-02-28T01:46:56;27.27;;;16.30;;
29196;SDS011;62796;42.654;23.316;2023-02-28T01:49:21;29.88;;;17.70;;
29196;SDS011;62796;42.654;23.316;2023-02-28T01:51:48;29.65;;;18.38;;
29196;SDS011;62796;42.654;23.316;2023-02-28T01:54:18;30.58;;;18.48;;
29196;SDS011;62796;42.654;23.316;2023-02-28T01:57:01;32.95;;;18.95;;
29196;SDS011;62796;42.654;23.316;2023-02-28T01:59:44;32.10;;;19.13;;
29196;SDS011;62796;42.654;23.316;2023-02-28T02:02:18;30.85;;;18.60;;
29196;SDS011;62796;42.654;23.316;2023-02-28T02:04:51;31.23;;;19.02;;
29196;SDS011;62796;42.654;23.316;2023-02-28T02:07:20;30.52;;;18.75;;
29196;SDS011;62796;42.654;23.316;2023-02-28T02:09:46;29.27;;;18.60;;
29196;SDS011;62796;42.654;23.316;2023-02-28T02:12:21;31.00;;;19.85;;
29196;SDS011;62796;42.654;23.316;2023-02-28T02:17:40;40.17;;;23.08;;
29196;SDS011;62796;42.654;23.316;2023-02-28T02:33:58;55.97;;;27.02;;
29196;SDS011;62796;42.654;23.316;2023-02-28T02:36:48;61.10;;;27.25;;
29196;SDS011;62796;42.654;23.316;2023-02-28T02:41:49;43.25;;;25.40;;
29196;SDS011;62796;42.654;23.316;2023-02-28T02:47:10;46.15;;;23.17;;
29196;SDS011;62796;42.654;23.316;2023-02-28T02:49:41;42.83;;;23.65;;
29196;SDS011;62796;42.654;23.316;2023-02-28T02:52:12;46.83;;;26.30;;
29196;SDS011;62796;42.654;23.316;2023-02-28T02:54:43;50.20;;;27.17;;
29196;SDS011;62796;42.654;23.316;2023-02-28T02:57:30;46.58;;;28.02;;
29196;SDS011;62796;42.654;23.316;2023-02-28T02:59:57;51.28;;;26.48;;
29196;SDS011;62796;42.654;23.316;2023-02-28T03:02:26;49.50;;;27.52;;
29196;SDS011;62796;42.654;23.316;2023-02-28T03:04:59;51.38;;;27.30;;
29196;SDS011;62796;42.654;23.316;2023-02-28T03:07:27;51.72;;;28.15;;
29196;SDS011;62796;42.654;23.316;2023-02-28T03:09:54;51.83;;;27.73;;
29196;SDS011;62796;42.654;23.316;2023-02-28T03:12:20;51.20;;;28.38;;
29196;SDS011;62796;42.654;23.316;2023-02-28T03:14:55;58.38;;;31.08;;
29196;SDS011;62796;42.654;23.316;2023-02-28T03:17:41;54.42;;;29.90;;
29196;SDS011;62796;42.654;23.316;2023-02-28T03:25:46;58.05;;;29.73;;
29196;SDS011;62796;42.654;23.316;2023-02-28T03:31:26;50.10;;;28.15;;
29196;SDS011;62796;42.654;23.316;2023-02-28T03:36:38;51.20;;;27.67;;
29196;SDS011;62796;42.654;23.316;2023-02-28T03:39:14;55.55;;;28.70;;
29196;SDS011;62796;42.654;23.316;2023-02-28T03:41:45;52.45;;;29.45;;
29196;SDS011;62796;42.654;23.316;2023-02-28T03:44:18;53.65;;;28.25;;
29196;SDS011;62796;42.654;23.316;2023-02-28T03:47:08;51.70;;;29.52;;
29196;SDS011;62796;42.654;23.316;2023-02-28T03:49:42;58.25;;;30.67;;
29196;SDS011;62796;42.654;23.316;2023-02-28T03:52:31;53.15;;;27.55;;
29196;SDS011;62796;42.654;23.316;2023-02-28T03:55:00;47.03;;;25.63;;
29196;SDS011;62796;42.654;23.316;2023-02-28T03:57:34;47.55;;;25.58;;
29196;SDS011;62796;42.654;23.316;2023-02-28T04:02:59;40.85;;;22.33;;
29196;SDS011;62796;42.654;23.316;2023-02-28T04:05:24;43.13;;;23.80;;
29196;SDS011;62796;42.654;23.316;2023-02-28T04:07:51;40.75;;;21.40;;
29196;SDS011;62796;42.654;23.316;2023-02-28T04:10:17;39.42;;;21.70;;
29196;SDS011;62796;42.654;23.316;2023-02-28T04:12:43;45.72;;;23.73;;
29196;SDS011;62796;42.654;23.316;2023-02-28T04:15:08;45.42;;;24.20;;
29196;SDS011;62796;42.654;23.316;2023-02-28T04:17:35;45.70;;;24.58;;
29196;SDS011;62796;42.654;23.316;2023-02-28T04:20:01;48.10;;;25.55;;
29196;SDS011;62796;42.654;23.316;2023-02-28T04:22:26;46.00;;;25.55;;
29196;SDS011;62796;42.654;23.316;2023-02-28T04:24:52;46.55;;;26.13;;
29196;SDS011;62796;42.654;23.316;2023-02-28T04:27:19;47.83;;;26.00;;
29196;SDS011;62796;42.654;23.316;2023-02-28T04:29:45;52.13;;;28.95;;
29196;SDS011;62796;42.654;23.316;2023-02-28T04:32:11;51.47;;;26.40;;
29196;SDS011;62796;42.654;23.316;2023-02-28T04:34:36;54.65;;;27.23;;
29196;SDS011;62796;42.654;23.316;2023-02-28T04:37:02;51.47;;;27.30;;
29196;SDS011;62796;42.654;23.316;2023-02-28T04:39:28;45.80;;;25.50;;
29196;SDS011;62796;42.654;23.316;2023-02-28T04:41:54;52.70;;;26.92;;
29196;SDS011;62796;42.654;23.316;2023-02-28T04:44:20;41.90;;;22.00;;
29196;SDS011;62796;42.654;23.316;2023-02-28T04:46:47;38.60;;;20.70;;
29196;SDS011;62796;42.654;23.316;2023-02-28T04:49:13;32.15;;;18.55;;
29196;SDS011;62796;42.654;23.316;2023-02-28T04:51:39;38.58;;;20.67;;
29196;SDS011;62796;42.654;23.316;2023-02-28T04:54:04;39.55;;;21.92;;
29196;SDS011;62796;42.654;23.316;2023-02-28T04:56:30;43.53;;;21.70;;
29196;SDS011;62796;42.654;23.316;2023-02-28T04:58:55;42.53;;;22.15;;
29196;SDS011;62796;42.654;23.316;2023-02-28T05:01:28;39.28;;;20.75;;
29196;SDS011;62796;42.654;23.316;2023-02-28T05:03:55;36.25;;;19.60;;
29196;SDS011;62796;42.654;23.316;2023-02-28T05:06:23;39.75;;;20.83;;
29196;SDS011;62796;42.654;23.316;2023-02-28T05:08:49;34.08;;;20.25;;
29196;SDS011;62796;42.654;23.316;2023-02-28T05:13:45;37.58;;;19.40;;
29196;SDS011;62796;42.654;23.316;2023-02-28T05:16:11;38.53;;;19.48;;
29196;SDS011;62796;42.654;23.316;2023-02-28T05:18:36;37.47;;;20.05;;
29196;SDS011;62796;42.654;23.316;2023-02-28T05:21:02;34.15;;;19.45;;
29196;SDS011;62796;42.654;23.316;2023-02-28T05:23:28;33.15;;;17.80;;
29196;SDS011;62796;42.654;23.316;2023-02-28T05:25:54;38.03;;;20.48;;
29196;SDS011;62796;42.654;23.316;2023-02-28T05:28:19;35.83;;;18.73;;
29196;SDS011;62796;42.654;23.316;2023-02-28T05:30:45;37.45;;;19.98;;
29196;SDS011;62796;42.654;23.316;2023-02-28T05:33:11;44.00;;;24.42;;
29196;SDS011;62796;42.654;23.316;2023-02-28T05:35:38;46.20;;;24.17;;
29196;SDS011;62796;42.654;23.316;2023-02-28T05:38:04;52.35;;;25.67;;
29196;SDS011;62796;42.654;23.316;2023-02-28T05:40:30;46.33;;;22.48;;
29196;SDS011;62796;42.654;23.316;2023-02-28T05:42:55;43.42;;;22.05;;
29196;SDS011;62796;42.654;23.316;2023-02-28T05:45:20;44.75;;;23.80;;
29196;SDS011;62796;42.654;23.316;2023-02-28T05:47:46;40.75;;;21.10;;
29196;SDS011;62796;42.654;23.316;2023-02-28T05:50:11;38.35;;;20.92;;
29196;SDS011;62796;42.654;23.316;2023-02-28T05:52:36;37.42;;;19.70;;
29196;SDS011;62796;42.654;23.316;2023-02-28T05:55:02;43.10;;;21.20;;
29196;SDS011;62796;42.654;23.316;2023-02-28T05:57:29;39.85;;;20.83;;
29196;SDS011;62796;42.654;23.316;2023-02-28T05:59:55;39.58;;;20.98;;
29196;SDS011;62796;42.654;23.316;2023-02-28T06:02:21;42.80;;;22.42;;
29196;SDS011;62796;42.654;23.316;2023-02-28T06:04:46;43.08;;;22.98;;
29196;SDS011;62796;42.654;23.316;2023-02-28T06:07:12;45.83;;;25.10;;
29196;SDS011;62796;42.654;23.316;2023-02-28T06:09:37;53.42;;;28.08;;
29196;SDS011;62796;42.654;23.316;2023-02-28T06:12:03;51.15;;;27.05;;
29196;SDS011;62796;42.654;23.316;2023-02-28T06:14:32;52.22;;;27.15;;
29196;SDS011;62796;42.654;23.316;2023-02-28T06:16:58;51.50;;;26.80;;
29196;SDS011;62796;42.654;23.316;2023-02-28T06:19:25;49.25;;;25.20;;
29196;SDS011;62796;42.654;23.316;2023-02-28T06:21:51;51.53;;;28.05;;
29196;SDS011;62796;42.654;23.316;2023-02-28T06:24:18;56.35;;;28.80;;
29196;SDS011;62796;42.654;23.316;2023-02-28T06:26:47;51.22;;;27.83;;
29196;SDS011;62796;42.654;23.316;2023-02-28T06:29:13;54.65;;;28.17;;
29196;SDS011;62796;42.654;23.316;2023-02-28T06:31:42;53.30;;;27.50;;
29196;SDS011;62796;42.654;23.316;2023-02-28T06:34:09;55.72;;;27.77;;
29196;SDS011;62796;42.654;23.316;2023-02-28T06:36:36;54.00;;;30.80;;
29196;SDS011;62796;42.654;23.316;2023-02-28T06:39:02;56.20;;;30.02;;
29196;SDS011;62796;42.654;23.316;2023-02-28T06:41:28;59.40;;;30.48;;
29196;SDS011;62796;42.654;23.316;2023-02-28T06:43:53;55.55;;;30.30;;
29196;SDS011;62796;42.654;23.316;2023-02-28T06:46:19;57.97;;;29.88;;
29196;SDS011;62796;42.654;23.316;2023-02-28T06:48:45;60.58;;;31.13;;
29196;SDS011;62796;42.654;23.316;2023-02-28T06:51:12;56.83;;;30.55;;
29196;SDS011;62796;42.654;23.316;2023-02-28T06:53:39;58.38;;;31.35;;
29196;SDS011;62796;42.654;23.316;2023-02-28T06:56:07;56.40;;;30.45;;
29196;SDS011;62796;42.654;23.316;2023-02-28T06:58:36;64.97;;;31.20;;
29196;SDS011;62796;42.654;23.316;2023-02-28T07:01:02;58.15;;;31.83;;
29196;SDS011;62796;42.654;23.316;2023-02-28T07:03:28;57.90;;;32.03;;
29196;SDS011;62796;42.654;23.316;2023-02-28T07:05:54;56.42;;;30.92;;
29196;SDS011;62796;42.654;23.316;2023-02-28T07:08:21;58.10;;;31.38;;
29196;SDS011;62796;42.654;23.316;2023-02-28T07:10:47;68.32;;;32.30;;
29196;SDS011;62796;42.654;23.316;2023-02-28T07:13:17;62.15;;;31.85;;
29196;SDS011;62796;42.654;23.316;2023-02-28T07:15:42;66.25;;;30.58;;
29196;SDS011;62796;42.654;23.316;2023-02-28T07:18:07;55.25;;;29.27;;
29196;SDS011;62796;42.654;23.316;2023-02-28T07:20:33;62.80;;;31.92;;
29196;SDS011;62796;42.654;23.316;2023-02-28T07:22:58;58.85;;;31.35;;
29196;SDS011;62796;42.654;23.316;2023-02-28T07:25:24;57.70;;;31.52;;
29196;SDS011;62796;42.654;23.316;2023-02-28T07:27:50;59.90;;;32.33;;
29196;SDS011;62796;42.654;23.316;2023-02-28T07:30:16;70.80;;;31.75;;
29196;SDS011;62796;42.654;23.316;2023-02-28T07:32:42;60.45;;;31.15;;
29196;SDS011;62796;42.654;23.316;2023-02-28T07:35:08;62.05;;;32.25;;
29196;SDS011;62796;42.654;23.316;2023-02-28T07:37:33;59.85;;;30.67;;
29196;SDS011;62796;42.654;23.316;2023-02-28T07:40:05;60.83;;;30.88;;
29196;SDS011;62796;42.654;23.316;2023-02-28T07:42:33;60.63;;;32.00;;
29196;SDS011;62796;42.654;23.316;2023-02-28T07:44:59;58.00;;;31.55;;
29196;SDS011;62796;42.654;23.316;2023-02-28T07:47:25;63.33;;;31.63;;
29196;SDS011;62796;42.654;23.316;2023-02-28T07:49:51;63.65;;;30.83;;
29196;SDS011;62796;42.654;23.316;2023-02-28T07:52:16;60.53;;;32.50;;
29196;SDS011;62796;42.654;23.316;2023-02-28T07:54:42;55.38;;;31.45;;
29196;SDS011;62796;42.654;23.316;2023-02-28T07:57:07;62.55;;;33.17;;
29196;SDS011;62796;42.654;23.316;2023-02-28T07:59:33;57.17;;;31.90;;
29196;SDS011;62796;42.654;23.316;2023-02-28T08:01:58;58.55;;;30.38;;
29196;SDS011;62796;42.654;23.316;2023-02-28T08:04:24;60.53;;;32.17;;
29196;SDS011;62796;42.654;23.316;2023-02-28T08:06:49;56.55;;;32.33;;
29196;SDS011;62796;42.654;23.316;2023-02-28T08:09:17;61.47;;;31.08;;
29196;SDS011;62796;42.654;23.316;2023-02-28T08:11:42;61.00;;;31.67;;
29196;SDS011;62796;42.654;23.316;2023-02-28T08:14:08;60.95;;;33.20;;
29196;SDS011;62796;42.654;23.316;2023-02-28T08:16:33;60.15;;;31.75;;
29196;SDS011;62796;42.654;23.316;2023-02-28T08:18:59;57.65;;;31.73;;
29196;SDS011;62796;42.654;23.316;2023-02-28T08:21:24;59.92;;;31.98;;
29196;SDS011;62796;42.654;23.316;2023-02-28T08:23:50;55.92;;;31.55;;
29196;SDS011;62796;42.654;23.316;2023-02-28T08:26:16;71.70;;;34.08;;
29196;SDS011;62796;42.654;23.316;2023-02-28T08:28:42;65.85;;;33.20;;
29196;SDS011;62796;42.654;23.316;2023-02-28T08:31:09;58.78;;;33.88;;
29196;SDS011;62796;42.654;23.316;2023-02-28T08:33:36;61.60;;;33.35;;
29196;SDS011;62796;42.654;23.316;2023-02-28T08:36:02;57.85;;;30.42;;
29196;SDS011;62796;42.654;23.316;2023-02-28T08:38:27;56.83;;;30.40;;
29196;SDS011;62796;42.654;23.316;2023-02-28T08:40:59;53.25;;;30.70;;
29196;SDS011;62796;42.654;23.316;2023-02-28T08:43:26;58.95;;;30.73;;
29196;SDS011;62796;42.654;23.316;2023-02-28T08:45:52;70.78;;;33.65;;
29196;SDS011;62796;42.654;23.316;2023-02-28T08:48:19;65.32;;;32.15;;
29196;SDS011;62796;42.654;23.316;2023-02-28T08:50:44;65.57;;;34.25;;
29196;SDS011;62796;42.654;23.316;2023-02-28T08:53:10;65.00;;;30.92;;
29196;SDS011;62796;42.654;23.316;2023-02-28T08:55:35;63.78;;;35.63;;
29196;SDS011;62796;42.654;23.316;2023-02-28T08:58:00;66.80;;;35.10;;
29196;SDS011;62796;42.654;23.316;2023-02-28T09:00:26;68.75;;;34.63;;
29196;SDS011;62796;42.654;23.316;2023-02-28T09:02:51;65.93;;;34.83;;
29196;SDS011;62796;42.654;23.316;2023-02-28T09:05:17;80.05;;;38.63;;
29196;SDS011;62796;42.654;23.316;2023-02-28T09:07:42;72.70;;;38.55;;
29196;SDS011;62796;42.654;23.316;2023-02-28T09:10:08;76.07;;;38.78;;
29196;SDS011;62796;42.654;23.316;2023-02-28T09:12:34;85.15;;;40.53;;
29196;SDS011;62796;42.654;23.316;2023-02-28T09:15:00;96.35;;;44.22;;
29196;SDS011;62796;42.654;23.316;2023-02-28T09:17:26;94.55;;;44.38;;
29196;SDS011;62796;42.654;23.316;2023-02-28T09:19:51;91.57;;;44.95;;
29196;SDS011;62796;42.654;23.316;2023-02-28T09:22:17;93.60;;;46.40;;
29196;SDS011;62796;42.654;23.316;2023-02-28T09:24:42;88.75;;;43.00;;
29196;SDS011;62796;42.654;23.316;2023-02-28T09:27:09;90.30;;;45.45;;
29196;SDS011;62796;42.654;23.316;2023-02-28T09:29:34;94.60;;;43.10;;
29196;SDS011;62796;42.654;23.316;2023-02-28T09:32:00;90.13;;;44.92;;
29196;SDS011;62796;42.654;23.316;2023-02-28T09:34:27;88.30;;;42.88;;
29196;SDS011;62796;42.654;23.316;2023-02-28T09:36:53;94.97;;;40.13;;
29196;SDS011;62796;42.654;23.316;2023-02-28T09:39:20;82.90;;;40.60;;
29196;SDS011;62796;42.654;23.316;2023-02-28T09:41:47;91.30;;;41.58;;
29196;SDS011;62796;42.654;23.316;2023-02-28T09:44:24;92.90;;;41.88;;
29196;SDS011;62796;42.654;23.316;2023-02-28T09:46:56;88.53;;;42.17;;
29196;SDS011;62796;42.654;23.316;2023-02-28T09:49:25;77.82;;;38.10;;
29196;SDS011;62796;42.654;23.316;2023-02-28T09:51:59;81.93;;;40.85;;
29196;SDS011;62796;42.654;23.316;2023-02-28T09:54:28;87.85;;;40.20;;
29196;SDS011;62796;42.654;23.316;2023-02-28T09:56:58;84.28;;;39.10;;
29196;SDS011;62796;42.654;23.316;2023-02-28T10:13:00;77.93;;;36.88;;
29196;SDS011;62796;42.654;23.316;2023-02-28T10:15:30;81.38;;;38.20;;
29196;SDS011;62796;42.654;23.316;2023-02-28T10:17:58;82.25;;;37.28;;
29196;SDS011;62796;42.654;23.316;2023-02-28T10:20:28;34.55;;;17.52;;
29196;SDS011;62796;42.654;23.316;2023-02-28T10:23:04;32.38;;;16.30;;
29196;SDS011;62796;42.654;23.316;2023-02-28T10:25:32;32.22;;;17.33;;
29196;SDS011;62796;42.654;23.316;2023-02-28T10:28:13;34.63;;;16.63;;
29196;SDS011;62796;42.654;23.316;2023-02-28T10:30:43;32.13;;;17.10;;
29196;SDS011;62796;42.654;23.316;2023-02-28T10:33:28;36.88;;;17.83;;
29196;SDS011;62796;42.654;23.316;2023-02-28T10:35:59;33.90;;;16.30;;
29196;SDS011;62796;42.654;23.316;2023-02-28T10:38:36;31.75;;;15.40;;
29196;SDS011;62796;42.654;23.316;2023-02-28T10:41:09;33.63;;;14.20;;
29196;SDS011;62796;42.654;23.316;2023-02-28T10:43:36;33.47;;;13.38;;
29196;SDS011;62796;42.654;23.316;2023-02-28T10:46:04;26.75;;;13.57;;
29196;SDS011;62796;42.654;23.316;2023-02-28T10:51:02;42.88;;;15.63;;
29196;SDS011;62796;42.654;23.316;2023-02-28T10:53:31;31.42;;;14.95;;
29196;SDS011;62796;42.654;23.316;2023-02-28T11:01:20;32.75;;;14.70;;
29196;SDS011;62796;42.654;23.316;2023-02-28T11:03:48;37.13;;;15.40;;
29196;SDS011;62796;42.654;23.316;2023-02-28T11:06:18;30.13;;;15.57;;
29196;SDS011;62796;42.654;23.316;2023-02-28T11:08:47;32.25;;;14.75;;
29196;SDS011;62796;42.654;23.316;2023-02-28T11:11:17;31.83;;;15.90;;
29196;SDS011;62796;42.654;23.316;2023-02-28T11:13:45;30.70;;;15.88;;
29196;SDS011;62796;42.654;23.316;2023-02-28T11:16:15;34.58;;;16.60;;
29196;SDS011;62796;42.654;23.316;2023-02-28T11:18:54;39.65;;;16.35;;
29196;SDS011;62796;42.654;23.316;2023-02-28T11:21:21;29.42;;;14.60;;
29196;SDS011;62796;42.654;23.316;2023-02-28T11:27:40;34.00;;;15.75;;
29196;SDS011;62796;42.654;23.316;2023-02-28T11:33:22;30.33;;;15.88;;
29196;SDS011;62796;42.654;23.316;2023-02-28T11:35:51;35.00;;;16.38;;
29196;SDS011;62796;42.654;23.316;2023-02-28T11:38:20;33.20;;;15.32;;
29196;SDS011;62796;42.654;23.316;2023-02-28T11:40:54;36.20;;;16.65;;
29196;SDS011;62796;42.654;23.316;2023-02-28T11:43:38;44.05;;;17.30;;
29196;SDS011;62796;42.654;23.316;2023-02-28T11:54:54;33.13;;;17.13;;
29196;SDS011;62796;42.654;23.316;2023-02-28T11:57:52;36.33;;;16.98;;
29196;SDS011;62796;42.654;23.316;2023-02-28T12:03:21;30.70;;;16.75;;
29196;SDS011;62796;42.654;23.316;2023-02-28T12:05:59;35.08;;;17.88;;
29196;SDS011;62796;42.654;23.316;2023-02-28T12:17:06;33.72;;;16.15;;
29196;SDS011;62796;42.654;23.316;2023-02-28T12:24:47;31.80;;;14.43;;
29196;SDS011;62796;42.654;23.316;2023-02-28T12:27:28;31.73;;;17.15;;
29196;SDS011;62796;42.654;23.316;2023-02-28T12:30:13;29.98;;;15.05;;
29196;SDS011;62796;42.654;23.316;2023-02-28T12:32:44;33.88;;;16.63;;
29196;SDS011;62796;42.654;23.316;2023-02-28T12:35:13;41.65;;;18.13;;
29196;SDS011;62796;42.654;23.316;2023-02-28T12:37:42;37.67;;;17.23;;
29196;SDS011;62796;42.654;23.316;2023-02-28T12:40:18;37.60;;;17.30;;
29196;SDS011;62796;42.654;23.316;2023-02-28T12:42:57;37.13;;;16.65;;
29196;SDS011;62796;42.654;23.316;2023-02-28T12:48:08;31.95;;;16.23;;
29196;SDS011;62796;42.654;23.316;2023-02-28T12:50:38;41.88;;;17.25;;
29196;SDS011;62796;42.654;23.316;2023-02-28T12:58:39;33.45;;;15.18;;
29196;SDS011;62796;42.654;23.316;2023-02-28T13:09:03;31.27;;;16.33;;
29196;SDS011;62796;42.654;23.316;2023-02-28T13:14:29;34.35;;;16.63;;
29196;SDS011;62796;42.654;23.316;2023-02-28T13:16:59;31.92;;;15.35;;
29196;SDS011;62796;42.654;23.316;2023-02-28T13:19:29;39.30;;;14.90;;
29196;SDS011;62796;42.654;23.316;2023-02-28T13:21:57;34.00;;;16.25;;
29196;SDS011;62796;42.654;23.316;2023-02-28T13:27:19;34.65;;;15.43;;
29196;SDS011;62796;42.654;23.316;2023-02-28T13:29:49;34.47;;;14.63;;
29196;SDS011;62796;42.654;23.316;2023-02-28T13:32:35;32.85;;;15.63;;
29196;SDS011;62796;42.654;23.316;2023-02-28T13:40:36;22.60;;;12.05;;
29196;SDS011;62796;42.654;23.316;2023-02-28T13:43:12;24.85;;;11.48;;
29196;SDS011;62796;42.654;23.316;2023-02-28T13:46:11;31.90;;;12.13;;
29196;SDS011;62796;42.654;23.316;2023-02-28T13:48:33;25.15;;;11.82;;
29196;SDS011;62796;42.654;23.316;2023-02-28T13:50:58;27.95;;;12.60;;
29196;SDS011;62796;42.654;23.316;2023-02-28T13:53:30;25.80;;;11.85;;
29196;SDS011;62796;42.654;23.316;2023-02-28T13:56:19;27.73;;;12.02;;
29196;SDS011;62796;42.654;23.316;2023-02-28T13:59:06;25.85;;;11.25;;
29196;SDS011;62796;42.654;23.316;2023-02-28T14:06:52;27.38;;;11.90;;
29196;SDS011;62796;42.654;23.316;2023-02-28T14:09:35;26.63;;;12.43;;
29196;SDS011;62796;42.654;23.316;2023-02-28T14:18:18;32.03;;;11.82;;
29196;SDS011;62796;42.654;23.316;2023-02-28T14:20:47;29.25;;;12.32;;
29196;SDS011;62796;42.654;23.316;2023-02-28T14:32:11;26.02;;;12.38;;
29196;SDS011;62796;42.654;23.316;2023-02-28T14:37:42;28.00;;;12.50;;
29196;SDS011;62796;42.654;23.316;2023-02-28T14:40:15;29.15;;;12.45;;
29196;SDS011;62796;42.654;23.316;2023-02-28T14:42:57;29.48;;;13.50;;
29196;SDS011;62796;42.654;23.316;2023-02-28T14:45:30;26.00;;;12.63;;
29196;SDS011;62796;42.654;23.316;2023-02-28T14:47:59;27.67;;;12.63;;
29196;SDS011;62796;42.654;23.316;2023-02-28T14:50:27;28.65;;;12.63;;
29196;SDS011;62796;42.654;23.316;2023-02-28T14:52:55;31.42;;;13.07;;
29196;SDS011;62796;42.654;23.316;2023-02-28T14:55:29;29.85;;;13.27;;
29196;SDS011;62796;42.654;23.316;2023-02-28T14:58:00;32.22;;;12.52;;
29196;SDS011;62796;42.654;23.316;2023-02-28T15:00:32;29.92;;;12.55;;
29196;SDS011;62796;42.654;23.316;2023-02-28T15:03:13;29.10;;;13.02;;
29196;SDS011;62796;42.654;23.316;2023-02-28T15:05:47;24.25;;;12.45;;
29196;SDS011;62796;42.654;23.316;2023-02-28T15:08:17;29.73;;;13.80;;
29196;SDS011;62796;42.654;23.316;2023-02-28T15:10:45;36.83;;;14.13;;
29196;SDS011;62796;42.654;23.316;2023-02-28T15:13:16;35.15;;;14.15;;
29196;SDS011;62796;42.654;23.316;2023-02-28T15:18:26;28.52;;;13.23;;
29196;SDS011;62796;42.654;23.316;2023-02-28T15:20:58;30.67;;;13.77;;
29196;SDS011;62796;42.654;23.316;2023-02-28T15:23:27;32.20;;;13.30;;
29196;SDS011;62796;42.654;23.316;2023-02-28T15:25:54;27.58;;;13.75;;
29196;SDS011;62796;42.654;23.316;2023-02-28T15:28:20;28.15;;;12.50;;
29196;SDS011;62796;42.654;23.316;2023-02-28T15:30:52;29.58;;;13.40;;
29196;SDS011;62796;42.654;23.316;2023-02-28T15:33:25;27.63;;;12.18;;
29196;SDS011;62796;42.654;23.316;2023-02-28T15:36:03;28.15;;;12.75;;
29196;SDS011;62796;42.654;23.316;2023-02-28T15:38:32;28.83;;;12.98;;
29196;SDS011;62796;42.654;23.316;2023-02-28T15:41:00;23.95;;;12.88;;
29196;SDS011;62796;42.654;23.316;2023-02-28T15:43:32;29.95;;;14.02;;
29196;SDS011;62796;42.654;23.316;2023-02-28T15:46:09;29.90;;;13.02;;
29196;SDS011;62796;42.654;23.316;2023-02-28T15:48:45;29.17;;;13.25;;
29196;SDS011;62796;42.654;23.316;2023-02-28T15:53:47;24.92;;;12.82;;
29196;SDS011;62796;42.654;23.316;2023-02-28T15:56:26;25.85;;;12.30;;
29196;SDS011;62796;42.654;23.316;2023-02-28T15:58:57;19.60;;;11.35;;
29196;SDS011;62796;42.654;23.316;2023-02-28T16:01:25;20.60;;;11.55;;
29196;SDS011;62796;42.654;23.316;2023-02-28T16:03:55;24.17;;;10.75;;
29196;SDS011;62796;42.654;23.316;2023-02-28T16:06:28;19.48;;;9.77;;
29196;SDS011;62796;42.654;23.316;2023-02-28T16:08:59;17.02;;;9.48;;
29196;SDS011;62796;42.654;23.316;2023-02-28T16:11:24;18.02;;;9.48;;
29196;SDS011;62796;42.654;23.316;2023-02-28T16:13:50;17.40;;;9.35;;
29196;SDS011;62796;42.654;23.316;2023-02-28T16:16:21;22.75;;;10.30;;
29196;SDS011;62796;42.654;23.316;2023-02-28T16:18:49;25.45;;;10.82;;
29196;SDS011;62796;42.654;23.316;2023-02-28T16:21:14;15.38;;;9.40;;
29196;SDS011;62796;42.654;23.316;2023-02-28T16:23:40;20.42;;;10.70;;
29196;SDS011;62796;42.654;23.316;2023-02-28T16:26:06;16.65;;;10.65;;
29196;SDS011;62796;42.654;23.316;2023-02-28T16:28:34;18.65;;;10.10;;
29196;SDS011;62796;42.654;23.316;2023-02-28T16:31:02;16.10;;;10.48;;
29196;SDS011;62796;42.654;23.316;2023-02-28T16:33:29;13.82;;;9.32;;
29196;SDS011;62796;42.654;23.316;2023-02-28T16:35:55;16.10;;;9.82;;
29196;SDS011;62796;42.654;23.316;2023-02-28T16:38:21;19.33;;;10.30;;
29196;SDS011;62796;42.654;23.316;2023-02-28T16:40:49;15.20;;;9.38;;
29196;SDS011;62796;42.654;23.316;2023-02-28T16:43:16;16.05;;;9.18;;
29196;SDS011;62796;42.654;23.316;2023-02-28T16:45:44;15.70;;;9.57;;
29196;SDS011;62796;42.654;23.316;2023-02-28T16:48:14;17.52;;;9.80;;
29196;SDS011;62796;42.654;23.316;2023-02-28T16:50:41;24.42;;;9.43;;